Time;durP1;ratioP1;P1;durP2;ratioP2;P2;SDS_P1;SDS_P2;PMS_P1;PMS_P2;Temp;Humidity;BMP_temperature;BMP_pressure;BME280_temperature;BME280_humidity;BME280_pressure;Samples;Min_cycle;Max_cycle;Signal;HPM_P1;HPM_P2
2022/10/16 00:00:41;;;;;;;5.90;5.50;;;;;;;27.93;58.42;100830.91;5061073;28;66063;-33
2022/10/16 00:03:12;;;;;;;5.73;5.37;;;;;;;27.93;59.16;100841.69;5063197;28;70072;-33
2022/10/16 00:05:44;;;;;;;9.55;5.60;;;;;;;27.89;59.47;100831.50;5061276;28;66563;-34
2022/10/16 00:08:14;;;;;;;;;;;;;;;27.69;59.90;100855.66;5060094;28;70500;-34
2022/10/16 00:10:44;;;;;;;5.88;5.47;;;;;;;27.96;59.73;100853.94;5058092;28;66652;-33
2022/10/16 00:13:17;;;;;;;5.97;5.57;;;;;;;28.03;58.92;100861.03;5046354;28;70868;-33
2022/10/16 00:15:48;;;;;;;9.02;6.03;;;;;;;28.05;59.83;100855.44;5058811;28;65388;-32
2022/10/16 00:18:18;;;;;;;15.27;6.20;;;;;;;28.10;60.18;100873.72;5057290;28;70198;-33
2022/10/16 00:20:49;;;;;;;8.40;5.50;;;;;;;28.13;59.63;100867.91;5063029;28;66638;-31
2022/10/16 00:23:38;;;;;;;15.02;5.88;;;;;;;28.14;60.52;100872.25;5049872;28;70438;-34
2022/10/16 00:26:12;;;;;;;11.18;6.32;;;;;;;27.67;60.40;100798.44;5058554;28;66327;-34
2022/10/16 00:28:42;;;;;;;30.02;11.00;;;;;;;28.28;58.76;100888.31;5054488;28;70099;-33
2022/10/16 00:31:13;;;;;;;18.70;16.95;;;;;;;28.19;59.28;100869.78;5055223;28;65740;-36
2022/10/16 00:33:45;;;;;;;34.55;24.30;;;;;;;27.95;59.63;100842.34;5058400;28;69777;-34
2022/10/16 00:36:19;;;;;;;36.88;23.92;;;;;;;28.33;59.57;100895.78;5053646;28;66089;-33
2022/10/16 00:38:55;;;;;;;32.47;24.65;;;;;;;28.33;60.46;100889.56;5055498;28;70705;-33
2022/10/16 00:41:27;;;;;;;29.83;24.08;;;;;;;27.88;60.70;100811.81;5058340;28;67029;-34
2022/10/16 00:44:04;;;;;;;27.00;24.15;;;;;;;28.38;60.92;100893.31;5051970;28;69230;-35
2022/10/16 00:46:42;;;;;;;24.15;21.63;;;;;;;27.42;61.05;100745.06;5049418;28;65580;-34
2022/10/16 00:49:18;;;;;;;32.97;24.10;;;;;;;27.90;61.75;100809.75;5052156;28;69517;-34
2022/10/16 00:51:52;;;;;;;26.98;24.33;;;;;;;28.45;61.40;100910.38;5052184;28;65548;-34
2022/10/16 00:54:32;;;;;;;25.80;23.23;;;;;;;27.99;61.35;100837.38;5046296;28;70487;-35
2022/10/16 00:57:06;;;;;;;29.95;23.67;;;;;;;28.20;61.99;100871.47;5055636;28;66560;-33
2022/10/16 00:59:41;;;;;;;25.38;23.05;;;;;;;28.41;62.07;100914.47;5057902;28;69789;-33
2022/10/16 01:02:14;;;;;;;29.40;25.85;;;;;;;28.38;63.41;100914.88;5050172;28;65456;-34
2022/10/16 01:04:52;;;;;;;28.42;25.35;;;;;;;28.44;64.48;100932.16;5049251;28;69444;-33
2022/10/16 01:07:50;;;;;;;28.52;25.50;;;;;;;28.40;64.72;100923.63;5047563;28;65663;-33
2022/10/16 01:10:40;;;;;;;29.05;25.95;;;;;;;28.51;63.27;100923.06;5052956;28;70208;-33
2022/10/16 01:13:18;;;;;;;27.20;24.45;;;;;;;28.48;63.34;100915.38;5050078;28;65421;-33
2022/10/16 01:15:51;;;;;;;28.02;25.08;;;;;;;28.58;63.54;100946.53;5050148;28;70161;-33
2022/10/16 01:18:34;;;;;;;27.83;24.75;;;;;;;28.53;65.30;100939.06;5052635;28;66421;-34
2022/10/16 01:21:10;;;;;;;16.98;15.23;;;;;;;28.15;64.08;100882.03;5052428;28;69764;-36
2022/10/16 01:24:22;;;;;;;12.77;11.80;;;;;;;28.29;64.98;100960.09;5055910;28;66637;-36
2022/10/16 01:27:29;;;;;;;11.52;10.45;;;;;;;28.20;65.20;100955.09;5042776;28;70114;-33
2022/10/16 01:30:07;;;;;;;12.63;11.32;;;;;;;28.25;65.28;100968.78;5039156;28;66325;-33
2022/10/16 01:32:40;;;;;;;15.30;11.88;;;;;;;28.36;63.72;100962.84;5055315;28;69424;-34
2022/10/16 01:35:18;;;;;;;10.98;10.20;;;;;;;28.00;63.19;100895.63;5045898;28;66776;-33
2022/10/16 01:38:19;;;;;;;13.27;10.50;;;;;;;28.41;63.33;100971.13;5055794;28;69330;-33
2022/10/16 01:41:04;;;;;;;11.27;10.20;;;;;;;28.41;63.03;100973.84;5054413;28;65297;-34
2022/10/16 01:43:40;;;;;;;10.45;9.48;;;;;;;28.55;63.35;100976.63;5023444;28;69211;-33
2022/10/16 01:46:13;;;;;;;13.07;10.13;;;;;;;28.57;63.34;100982.66;5055226;28;66413;-32
2022/10/16 01:48:44;;;;;;;10.60;9.70;;;;;;;28.61;63.24;100976.66;5055100;28;69447;-33
2022/10/16 01:51:17;;;;;;;13.43;10.25;;;;;;;28.00;63.26;100880.31;5053449;28;65162;-35
2022/10/16 01:53:52;;;;;;;12.25;11.05;;;;;;;28.51;63.20;100950.03;5056169;27;70233;-33
2022/10/16 01:56:25;;;;;;;11.70;10.70;;;;;;;28.73;62.55;100977.72;5055143;28;66409;-34
2022/10/16 01:59:05;;;;;;;11.93;10.85;;;;;;;28.24;62.36;100903.22;5051726;28;70227;-34
2022/10/16 02:01:39;;;;;;;11.68;10.00;;;;;;;28.79;63.04;100980.66;5055135;28;66112;-34
2022/10/16 02:04:23;;;;;;;12.20;11.30;;;;;;;28.22;62.91;100890.97;5052731;28;69499;-34
2022/10/16 02:06:54;;;;;;;12.48;11.57;;;;;;;28.82;62.77;100981.06;5054744;28;66657;-34
2022/10/16 02:09:25;;;;;;;13.67;12.13;;;;;;;28.84;63.00;100989.81;5057152;28;70333;-33
2022/10/16 02:12:02;;;;;;;12.00;11.13;;;;;;;28.58;62.47;100933.84;5055748;28;66631;-33
2022/10/16 02:14:33;;;;;;;12.88;11.80;;;;;;;28.83;62.46;100971.91;5056841;28;70417;-33
2022/10/16 02:17:15;;;;;;;13.45;12.25;;;;;;;28.78;62.70;100973.56;5054450;28;66037;-33
2022/10/16 02:19:49;;;;;;;13.45;12.30;;;;;;;28.49;62.88;100917.03;5055690;28;69254;-34
2022/10/16 02:22:33;;;;;;;13.23;12.10;;;;;;;28.94;62.61;100994.78;5055818;28;66435;-33
2022/10/16 02:25:16;;;;;;;13.02;11.93;;;;;;;29.02;62.75;101002.72;5046083;28;69716;-34
2022/10/16 02:27:58;;;;;;;13.00;12.10;;;;;;;28.44;62.34;100906.00;5054351;28;65707;-33
2022/10/16 02:30:41;;;;;;;14.00;12.80;;;;;;;28.48;62.56;100914.53;5055074;28;69725;-33
2022/10/16 02:33:14;;;;;;;13.52;12.50;;;;;;;29.12;62.69;101014.00;5053064;28;65354;-32
2022/10/16 02:35:47;;;;;;;13.05;12.05;;;;;;;29.14;62.98;100994.84;5053402;28;70189;-33
2022/10/16 02:38:20;;;;;;;12.13;11.32;;;;;;;28.64;62.54;100916.88;5051120;28;66975;-32
2022/10/16 02:40:51;;;;;;;12.98;11.95;;;;;;;29.18;62.32;100990.72;5055445;28;70061;-33
2022/10/16 02:43:22;;;;;;;13.90;12.60;;;;;;;29.05;62.87;100971.78;5059374;28;66053;-36
2022/10/16 02:45:52;;;;;;;13.32;12.48;;;;;;;29.24;62.25;100989.88;5058836;28;69168;-33
2022/10/16 02:48:23;;;;;;;13.10;12.30;;;;;;;29.24;62.39;100992.59;5059685;28;67032;-33
2022/10/16 02:50:53;;;;;;;12.63;11.82;;;;;;;29.27;62.58;101000.28;5058948;28;69679;-33
2022/10/16 02:53:23;;;;;;;13.77;12.48;;;;;;;29.17;62.87;100991.78;5058247;28;65394;-31
2022/10/16 02:55:55;;;;;;;14.80;12.18;;;;;;;29.05;63.50;100985.28;5055151;28;70587;-33
2022/10/16 02:58:25;;;;;;;12.57;11.68;;;;;;;28.90;63.66;100961.97;5060401;28;65726;-34
2022/10/16 03:00:56;;;;;;;15.57;11.52;;;;;;;28.91;64.69;100962.81;5055895;28;70130;-34
2022/10/16 03:03:27;;;;;;;14.43;12.15;;;;;;;29.01;65.23;100975.91;5051404;28;66425;-33
2022/10/16 03:05:57;;;;;;;11.50;10.52;;;;;;;29.04;65.07;100962.03;5048574;28;70014;-33
2022/10/16 03:08:29;;;;;;;13.38;12.10;;;;;;;29.03;65.40;100968.41;5050998;28;65590;-33
2022/10/16 03:10:59;;;;;;;11.20;10.30;;;;;;;28.92;65.65;100954.50;5042861;28;69296;-33
2022/10/16 03:13:30;;;;;;;11.40;10.50;;;;;;;29.05;65.55;100969.91;5050957;28;66023;-33
2022/10/16 03:16:01;;;;;;;11.50;10.80;;;;;;;29.05;65.47;100958.28;5051876;28;70502;-33
2022/10/16 03:18:31;;;;;;;11.85;10.68;;;;;;;29.05;65.26;100959.13;5051124;28;66303;-34
2022/10/16 03:21:02;;;;;;;10.70;9.88;;;;;;;28.98;65.72;100938.53;5043282;28;70188;-33
2022/10/16 03:23:32;;;;;;;21.35;9.70;;;;;;;29.10;64.90;100945.00;5052640;28;65270;-32
2022/10/16 03:26:03;;;;;;;11.63;10.27;;;;;;;29.08;65.35;100941.66;5049383;28;70272;-34
2022/10/16 03:28:33;;;;;;;14.50;9.57;;;;;;;29.15;64.89;100942.50;5040765;28;66562;-35
2022/10/16 03:31:04;;;;;;;10.93;10.10;;;;;;;29.23;65.31;100950.41;5051337;28;69838;-35
2022/10/16 03:33:35;;;;;;;10.00;9.30;;;;;;;29.18;64.91;100932.13;5042785;28;66214;-34
2022/10/16 03:36:06;;;;;;;10.13;9.10;;;;;;;29.20;64.53;100934.63;5039294;28;70244;-34
2022/10/16 03:38:37;;;;;;;11.85;10.70;;;;;;;29.26;64.25;100944.59;5047659;28;66066;-35
2022/10/16 03:41:08;;;;;;;9.07;8.27;;;;;;;29.29;64.55;100933.38;5047496;28;69487;-36
2022/10/16 03:43:39;;;;;;;10.43;9.48;;;;;;;29.30;64.62;100935.03;5049684;28;66265;-33
2022/10/16 03:46:09;;;;;;;9.10;8.45;;;;;;;29.23;64.60;100918.00;5048083;28;70269;-33
2022/10/16 03:48:41;;;;;;;10.45;9.70;;;;;;;29.34;64.57;100930.88;5051968;28;65700;-34
2022/10/16 03:51:12;;;;;;;10.27;9.47;;;;;;;29.31;64.28;100923.19;5048612;28;70003;-34
2022/10/16 03:53:42;;;;;;;9.63;8.85;;;;;;;29.28;63.89;100917.34;5060022;27;66108;-33
2022/10/16 03:56:13;;;;;;;9.30;8.60;;;;;;;29.36;64.12;100928.81;5059904;28;69255;-35
2022/10/16 03:58:43;;;;;;;9.60;8.95;;;;;;;29.39;63.93;100922.97;5054109;28;66102;-35
2022/10/16 04:01:14;;;;;;;9.88;8.90;;;;;;;29.53;62.83;100933.75;5057735;28;70411;-34
2022/10/16 04:03:45;;;;;;;8.50;8.00;;;;;;;29.46;62.85;100901.34;5062314;28;65799;-34
2022/10/16 04:06:15;;;;;;;8.57;8.07;;;;;;;29.63;62.82;100912.56;5056027;28;69467;-34
2022/10/16 04:08:46;;;;;;;8.63;8.13;;;;;;;29.77;62.40;100922.31;5062171;27;66216;-34
2022/10/16 04:11:18;;;;;;;8.30;7.80;;;;;;;29.79;62.22;100912.13;5023339;28;70003;-36
2022/10/16 04:13:50;;;;;;;8.07;7.53;;;;;;;29.90;62.43;100916.03;5042053;28;65943;-34
2022/10/16 04:16:22;;;;;;;8.07;7.57;;;;;;;29.96;61.76;100911.66;5022178;28;70006;-34
2022/10/16 04:18:53;;;;;;;7.93;7.43;;;;;;;30.00;61.69;100907.47;5046807;28;66410;-39
2022/10/16 04:21:24;;;;;;;7.85;7.25;;;;;;;30.03;62.01;100899.78;5027796;28;68938;-35
2022/10/16 04:23:55;;;;;;;7.60;7.10;;;;;;;30.09;61.50;100900.78;5053540;28;66335;-34
2022/10/16 04:26:27;;;;;;;8.10;7.45;;;;;;;30.14;61.65;100887.44;5052745;28;70187;-36
2022/10/16 04:28:59;;;;;;;7.65;7.05;;;;;;;30.18;61.25;100882.44;5052864;28;66206;-34
2022/10/16 04:31:30;;;;;;;8.73;7.40;;;;;;;30.19;61.61;100867.84;5049982;28;70426;-35
2022/10/16 04:34:21;;;;;;;8.35;7.30;;;;;;;29.89;61.41;100819.72;5046349;28;66390;-34
2022/10/16 04:36:52;;;;;;;12.30;8.77;;;;;;;29.92;61.39;100840.94;5059548;28;70356;-33
2022/10/16 04:39:22;;;;;;;8.65;8.10;;;;;;;29.96;61.28;100868.38;5067021;28;66210;-34
2022/10/16 04:41:53;;;;;;;8.82;7.90;;;;;;;29.97;62.13;100856.50;5060614;28;69307;-33
2022/10/16 04:44:23;;;;;;;9.68;8.15;;;;;;;29.90;62.19;100853.00;5060896;28;65211;-34
2022/10/16 04:46:54;;;;;;;8.55;7.85;;;;;;;29.68;62.53;100806.50;5060070;28;70303;-32
2022/10/16 04:49:24;;;;;;;9.43;8.15;;;;;;;29.84;61.92;100833.91;5060921;28;66164;-33
2022/10/16 04:51:55;;;;;;;7.45;6.95;;;;;;;29.90;62.46;100825.97;5061717;28;69894;-34
2022/10/16 04:54:26;;;;;;;7.78;7.18;;;;;;;29.88;61.97;100822.66;5054011;28;67345;-34
2022/10/16 04:56:57;;;;;;;8.68;7.82;;;;;;;29.88;61.98;100822.66;5055034;28;69945;-33
2022/10/16 04:59:27;;;;;;;10.15;7.53;;;;;;;29.84;61.96;100817.66;5050446;28;65931;-33
2022/10/16 05:01:58;;;;;;;7.13;6.63;;;;;;;29.82;61.94;100814.34;5049475;28;70192;-34
2022/10/16 05:04:29;;;;;;;7.17;6.67;;;;;;;29.90;61.43;100813.28;5049171;28;66272;-33
2022/10/16 05:06:59;;;;;;;7.28;6.65;;;;;;;29.83;61.44;100801.66;5059836;28;69453;-35
2022/10/16 05:09:30;;;;;;;6.90;6.20;;;;;;;29.92;61.68;100813.03;5035944;28;66456;-34
2022/10/16 05:12:03;;;;;;;7.20;6.60;;;;;;;29.97;62.19;100815.94;5050579;28;70140;-33
2022/10/16 05:14:33;;;;;;;11.52;7.70;;;;;;;30.00;62.08;100805.50;5057782;28;66667;-33
2022/10/16 05:17:04;;;;;;;10.40;7.05;;;;;;;29.95;62.57;100790.97;5058434;28;70108;-35
2022/10/16 05:19:37;;;;;;;12.18;6.72;;;;;;;29.99;62.82;100784.09;5057278;28;66379;-35
2022/10/16 05:22:10;;;;;;;11.85;7.38;;;;;;;30.07;63.00;100786.56;5056611;28;69147;-32
2022/10/16 05:24:41;;;;;;;16.02;6.32;;;;;;;29.98;63.38;100761.63;5059466;28;66781;-33
2022/10/16 05:27:18;;;;;;;7.90;5.95;;;;;;;30.12;63.46;100777.81;5061490;28;69628;-32
2022/10/16 05:29:49;;;;;;;10.88;5.75;;;;;;;30.09;63.35;100775.50;5057495;28;66371;-33
2022/10/16 05:32:20;;;;;;;9.65;6.78;;;;;;;29.98;62.40;100768.94;5055397;28;69946;-34
2022/10/16 05:34:51;;;;;;;20.02;6.13;;;;;;;29.94;61.91;100756.88;5055518;28;66239;-35
2022/10/16 05:37:22;;;;;;;9.23;5.25;;;;;;;29.86;61.48;100759.81;5056040;28;69652;-33
2022/10/16 05:40:06;;;;;;;9.32;5.70;;;;;;;29.81;60.59;100752.34;5053566;28;66619;-33
2022/10/16 05:42:37;;;;;;;9.18;5.82;;;;;;;29.71;60.05;100741.19;5055257;28;70109;-33
2022/10/16 05:45:09;;;;;;;;;;;;;;;29.45;59.41;100742.09;5049421;28;64366;-33
2022/10/16 05:47:40;;;;;;;14.07;5.00;;;;;;;29.66;58.73;100739.13;5057409;28;70068;-31
2022/10/16 05:50:11;;;;;;;4.73;4.40;;;;;;;29.61;57.45;100736.22;5056377;28;65618;-32
2022/10/16 05:52:41;;;;;;;6.20;5.63;;;;;;;29.62;57.38;100732.47;5056965;28;69836;-32
2022/10/16 05:55:12;;;;;;;9.48;4.15;;;;;;;29.54;56.78;100706.53;5055033;28;66345;-33
2022/10/16 05:57:43;;;;;;;5.15;4.70;;;;;;;29.45;55.67;100696.16;5057488;28;70806;-33
2022/10/16 06:00:13;;;;;;;4.60;4.10;;;;;;;29.56;55.19;100709.84;5053770;28;65415;-34
2022/10/16 06:02:44;;;;;;;4.32;4.03;;;;;;;29.56;54.77;100709.00;5052247;28;70395;-33
2022/10/16 06:05:15;;;;;;;4.82;4.43;;;;;;;29.51;54.18;100708.84;5057403;28;66039;-33
2022/10/16 06:07:45;;;;;;;5.97;4.10;;;;;;;29.56;54.82;100700.88;5057942;28;69866;-34
2022/10/16 06:10:16;;;;;;;4.28;3.97;;;;;;;29.49;53.25;100689.28;5056787;28;66340;-32
2022/10/16 06:12:46;;;;;;;4.28;3.97;;;;;;;29.54;52.77;100697.59;5059547;28;70414;-33
2022/10/16 06:15:16;;;;;;;5.13;4.72;;;;;;;29.58;53.64;100688.81;5059214;28;66458;-34
2022/10/16 06:17:47;;;;;;;4.57;4.18;;;;;;;29.53;51.91;100687.81;5060589;28;69820;-33
2022/10/16 06:20:17;;;;;;;9.63;4.10;;;;;;;29.55;51.95;100694.66;5062163;28;65498;-32
2022/10/16 06:22:48;;;;;;;3.70;3.42;;;;;;;29.54;51.93;100681.38;5062097;28;69152;-32
2022/10/16 06:25:18;;;;;;;3.50;3.30;;;;;;;29.58;50.99;100674.47;5061564;28;65694;-35
2022/10/16 06:27:49;;;;;;;3.30;3.10;;;;;;;29.56;50.80;100676.56;5061216;28;69874;-32
2022/10/16 06:30:20;;;;;;;4.13;3.83;;;;;;;29.62;51.32;100678.41;5062342;28;66488;-33
2022/10/16 06:32:50;;;;;;;5.60;3.63;;;;;;;29.58;50.56;100685.28;5056121;28;70794;-33
2022/10/16 06:35:21;;;;;;;4.07;3.78;;;;;;;29.60;50.04;100675.91;5058169;28;66617;-32
2022/10/16 06:37:53;;;;;;;3.13;2.92;;;;;;;29.39;49.83;100641.97;5062946;28;70376;-33
2022/10/16 06:40:24;;;;;;;3.85;3.60;;;;;;;29.60;49.58;100669.69;5062078;28;66944;-35
2022/10/16 06:42:58;;;;;;;3.60;3.30;;;;;;;29.64;49.56;100668.22;5063139;28;70366;-32
2022/10/16 06:45:29;;;;;;;6.43;3.80;;;;;;;29.59;49.31;100668.03;5062051;28;65953;-32
2022/10/16 06:48:00;;;;;;;3.93;3.37;;;;;;;29.58;49.42;100660.97;5063301;28;70367;-34
2022/10/16 06:50:30;;;;;;;3.28;3.08;;;;;;;29.61;48.85;100661.38;5061021;28;66301;-34
2022/10/16 06:53:01;;;;;;;3.65;2.75;;;;;;;29.50;49.06;100642.28;5055932;28;69576;-33
2022/10/16 06:55:31;;;;;;;3.33;3.03;;;;;;;29.60;48.27;100648.88;5058192;28;66162;-34
2022/10/16 06:58:02;;;;;;;5.40;3.30;;;;;;;29.50;48.48;100626.09;5059661;28;69446;-31
2022/10/16 07:00:32;;;;;;;3.00;2.80;;;;;;;29.62;48.00;100645.97;5055105;28;65783;-32
2022/10/16 07:03:02;;;;;;;2.80;2.60;;;;;;;29.09;48.08;100554.44;5059256;28;69486;-33
2022/10/16 07:05:38;;;;;;;3.03;2.75;;;;;;;29.09;47.51;100557.13;5061342;28;65525;-35
2022/10/16 07:08:09;;;;;;;3.03;2.78;;;;;;;29.62;47.31;100637.88;5055811;28;69519;-33
2022/10/16 07:10:40;;;;;;;2.90;2.70;;;;;;;29.64;47.41;100635.78;5061369;28;66071;-34
2022/10/16 07:13:14;;;;;;;3.22;3.03;;;;;;;29.62;47.65;100636.00;5062628;28;70577;-35
2022/10/16 07:15:44;;;;;;;3.90;3.60;;;;;;;29.63;49.68;100634.16;5056856;28;65732;-33
2022/10/16 07:18:15;;;;;;;4.35;3.33;;;;;;;29.67;49.75;100627.28;5058353;28;70299;-32
2022/10/16 07:20:45;;;;;;;9.38;3.67;;;;;;;29.73;49.48;100623.69;5057170;28;65421;-32
2022/10/16 07:23:16;;;;;;;7.68;3.20;;;;;;;29.71;48.90;100616.84;5057265;28;69597;-32
2022/10/16 07:25:53;;;;;;;3.47;3.20;;;;;;;29.75;48.57;100615.34;5056495;28;65151;-32
2022/10/16 07:28:23;;;;;;;3.70;3.45;;;;;;;29.79;49.62;100619.28;5056385;28;69757;-33
2022/10/16 07:30:54;;;;;;;4.80;4.03;;;;;;;29.72;48.83;100608.50;5060565;28;65935;-32
2022/10/16 07:33:25;;;;;;;5.53;3.50;;;;;;;29.84;49.18;100617.56;5061276;28;70429;-32
2022/10/16 07:35:55;;;;;;;5.65;3.60;;;;;;;29.89;47.70;100613.38;5060645;28;65852;-32
2022/10/16 07:38:26;;;;;;;3.50;3.30;;;;;;;29.93;48.07;100609.19;5059813;28;70174;-33
2022/10/16 07:41:05;;;;;;;3.50;3.13;;;;;;;29.89;46.87;100607.97;5060451;28;66197;-32
2022/10/16 07:43:37;;;;;;;8.68;3.50;;;;;;;29.97;48.21;100604.97;5060226;28;69176;-34
2022/10/16 07:46:08;;;;;;;5.93;3.83;;;;;;;29.84;46.69;100595.94;5059715;28;65980;-32
2022/10/16 07:48:39;;;;;;;4.18;3.40;;;;;;;29.86;46.63;100586.78;5058967;28;69332;-33
2022/10/16 07:51:10;;;;;;;18.92;3.45;;;;;;;29.88;46.08;100590.91;5059661;28;66085;-33
2022/10/16 07:53:41;;;;;;;3.35;3.15;;;;;;;29.88;46.29;100571.16;5054319;28;71018;-32
2022/10/16 07:56:12;;;;;;;7.47;3.25;;;;;;;29.93;45.76;100577.56;5053949;28;65353;-32
2022/10/16 07:58:43;;;;;;;7.43;4.07;;;;;;;29.95;46.08;100577.31;5058365;28;69206;-32
2022/10/16 08:01:15;;;;;;;4.60;3.17;;;;;;;30.00;45.72;100582.91;5054251;28;66452;-32
2022/10/16 08:03:49;;;;;;;12.63;3.35;;;;;;;30.14;46.58;100589.84;5056408;28;69244;-31
2022/10/16 08:06:21;;;;;;;7.18;3.85;;;;;;;30.25;49.11;100581.03;5056483;28;65405;-32
2022/10/16 08:08:56;;;;;;;5.65;4.20;;;;;;;30.38;50.73;100563.84;5052473;28;69877;-33
2022/10/16 08:11:27;;;;;;;9.07;4.40;;;;;;;30.68;50.52;100571.22;5055130;28;66578;-33
2022/10/16 08:13:58;;;;;;;4.82;4.43;;;;;;;30.95;50.99;100585.28;5048183;28;69173;-32
2022/10/16 08:16:29;;;;;;;11.38;4.05;;;;;;;31.11;51.39;100575.69;5052767;28;65513;-32
2022/10/16 08:18:59;;;;;;;6.32;4.32;;;;;;;31.21;51.58;100572.44;5051658;28;69066;-32
2022/10/16 08:21:30;;;;;;;5.28;4.88;;;;;;;31.36;52.28;100581.81;5047763;27;66585;-32
2022/10/16 08:24:00;;;;;;;5.20;4.70;;;;;;;31.48;52.47;100584.59;5041393;28;69179;-32
2022/10/16 08:26:31;;;;;;;5.80;5.30;;;;;;;31.59;53.32;100585.66;5044630;28;66059;-32
2022/10/16 08:29:01;;;;;;;11.85;4.60;;;;;;;31.68;53.56;100588.84;5055629;28;69407;-33
2022/10/16 08:31:32;;;;;;;5.38;4.72;;;;;;;31.76;53.34;100585.81;5048978;28;65299;-33
2022/10/16 08:34:02;;;;;;;5.63;5.10;;;;;;;31.85;53.78;100575.47;5050250;28;70269;-32
2022/10/16 08:36:33;;;;;;;5.30;4.80;;;;;;;31.92;54.23;100579.72;5050795;28;65438;-32
2022/10/16 08:39:17;;;;;;;5.68;5.10;;;;;;;31.98;53.92;100573.38;5058370;28;69384;-33
2022/10/16 08:42:25;;;;;;;5.80;5.30;;;;;;;32.00;54.21;100571.25;5057943;28;66583;-33
2022/10/16 08:45:34;;;;;;;5.45;4.95;;;;;;;32.05;54.14;100574.09;5043764;28;70193;-33
2022/10/16 08:48:31;;;;;;;5.28;4.80;;;;;;;32.16;54.01;100574.31;5060398;28;66264;-33
2022/10/16 08:51:04;;;;;;;6.70;4.78;;;;;;;32.01;53.92;100534.94;5052334;28;70283;-32
2022/10/16 08:53:46;;;;;;;5.28;4.93;;;;;;;31.84;54.42;100504.09;5059814;28;65619;-32
2022/10/16 08:56:18;;;;;;;5.10;4.60;;;;;;;32.33;54.03;100569.81;5059837;28;70430;-32
2022/10/16 08:58:49;;;;;;;5.63;5.03;;;;;;;32.45;53.96;100584.19;5061096;28;65714;-32
2022/10/16 09:01:40;;;;;;;5.25;4.85;;;;;;;32.46;54.53;100585.91;5058763;28;70365;-31
2022/10/16 09:04:25;;;;;;;4.82;4.40;;;;;;;32.57;54.38;100586.94;5059897;28;65289;-32
2022/10/16 09:07:05;;;;;;;6.28;5.00;;;;;;;32.59;54.17;100589.41;5059103;28;70325;-33
2022/10/16 09:09:58;;;;;;;5.63;5.18;;;;;;;32.61;55.09;100598.16;5058618;28;65453;-32
2022/10/16 09:12:49;;;;;;;5.32;4.90;;;;;;;32.71;53.98;100588.34;5043350;28;69221;-32
2022/10/16 09:15:39;;;;;;;5.35;4.95;;;;;;;32.74;54.16;100592.47;5049372;28;66405;-31
2022/10/16 09:18:40;;;;;;;4.88;4.50;;;;;;;32.72;54.41;100589.97;5048261;28;70225;-31
2022/10/16 09:21:20;;;;;;;6.15;4.43;;;;;;;32.67;54.67;100573.56;5052469;28;66120;-32
2022/10/16 09:23:51;;;;;;;5.78;4.68;;;;;;;32.84;54.13;100600.81;5049131;28;69757;-32
2022/10/16 09:26:22;;;;;;;5.00;4.60;;;;;;;32.88;54.14;100598.44;5043712;28;66255;-32
2022/10/16 09:28:58;;;;;;;5.20;4.70;;;;;;;32.69;54.63;100604.03;5050778;28;43426;-34
2022/10/16 09:31:28;;;;;;;5.35;4.95;;;;;;;32.43;56.27;100608.06;5051273;28;65123;-33
2022/10/16 09:34:05;;;;;;;4.78;4.47;;;;;;;31.81;57.19;100528.97;5049506;28;70122;-33
2022/10/16 09:36:43;;;;;;;5.50;4.75;;;;;;;31.73;58.13;100538.31;5049241;28;65688;-36
2022/10/16 09:39:13;;;;;;;5.32;4.93;;;;;;;32.15;58.12;100622.34;5041345;28;69499;-33
2022/10/16 09:41:45;;;;;;;5.60;5.10;;;;;;;32.13;58.42;100623.66;5055552;28;65547;-34
2022/10/16 09:44:29;;;;;;;5.88;4.80;;;;;;;32.09;58.51;100622.44;5051197;28;70186;-32
2022/10/16 09:47:05;;;;;;;5.63;5.13;;;;;;;32.02;58.59;100617.97;5055892;28;66101;-34
2022/10/16 09:49:36;;;;;;;5.18;4.78;;;;;;;31.44;59.02;100537.31;5048920;28;69036;-35
2022/10/16 09:52:16;;;;;;;5.13;4.72;;;;;;;31.48;58.93;100546.66;5052140;28;66007;-36
2022/10/16 09:55:01;;;;;;;7.70;4.78;;;;;;;31.99;59.01;100632.00;5056325;28;69847;-33
2022/10/16 09:57:32;;;;;;;5.80;5.40;;;;;;;31.99;59.25;100634.72;5052831;28;66597;-33
2022/10/16 10:00:09;;;;;;;5.15;4.75;;;;;;;31.53;58.93;100571.16;5055245;28;69677;-32
2022/10/16 10:02:40;;;;;;;7.88;5.03;;;;;;;31.94;59.36;100645.44;5054958;28;65675;-32
2022/10/16 10:05:26;;;;;;;5.95;4.95;;;;;;;31.95;59.45;100648.97;5057412;28;69071;-32
2022/10/16 10:08:08;;;;;;;6.07;5.50;;;;;;;31.97;59.56;100657.72;5059984;28;66769;-34
2022/10/16 10:10:42;;;;;;;6.10;5.60;;;;;;;31.51;59.99;100586.84;5051287;28;70032;-32
2022/10/16 10:13:26;;;;;;;5.25;4.75;;;;;;;31.89;60.59;100650.69;5057968;28;66841;-32
2022/10/16 10:15:57;;;;;;;6.38;5.25;;;;;;;31.96;61.00;100670.44;5059119;28;69920;-33
2022/10/16 10:18:31;;;;;;;5.70;5.20;;;;;;;31.94;61.73;100669.84;5057747;28;65337;-34
2022/10/16 10:21:05;;;;;;;4.95;4.65;;;;;;;31.95;62.15;100682.34;5057800;28;70224;-31
2022/10/16 10:23:37;;;;;;;5.55;4.97;;;;;;;32.10;61.33;100670.25;5057794;28;65653;-33
2022/10/16 10:26:18;;;;;;;6.07;5.47;;;;;;;32.27;60.77;100668.50;5058183;28;69029;-34
2022/10/16 10:29:27;;;;;;;5.05;4.65;;;;;;;32.39;60.31;100677.47;5052951;28;65550;-34
2022/10/16 10:32:08;;;;;;;11.73;5.65;;;;;;;31.99;60.03;100591.31;5021243;28;68839;-34
2022/10/16 10:34:53;;;;;;;6.55;4.57;;;;;;;32.56;59.94;100671.34;5056556;28;67160;-33
2022/10/16 10:37:41;;;;;;;5.47;4.95;;;;;;;32.57;59.28;100670.28;5053731;28;69866;-33
2022/10/16 10:40:33;;;;;;;6.05;5.47;;;;;;;32.26;58.76;100612.53;5071023;27;66323;-31
2022/10/16 10:43:30;;;;;;;6.65;4.85;;;;;;;32.72;58.13;100676.06;5056265;28;70138;-32
2022/10/16 10:46:04;;;;;;;5.38;4.90;;;;;;;32.74;58.17;100684.81;5059115;28;66197;-33
2022/10/16 10:49:09;;;;;;;6.20;5.70;;;;;;;32.68;58.32;100685.75;5055337;28;69353;-32
2022/10/16 10:51:48;;;;;;;5.57;5.05;;;;;;;32.72;57.93;100684.22;5055832;28;66286;-33
2022/10/16 10:54:28;;;;;;;5.75;5.20;;;;;;;32.74;57.96;100692.13;5057282;28;70069;-32
2022/10/16 10:57:22;;;;;;;5.57;5.07;;;;;;;32.14;57.78;100592.72;5055714;28;65657;-33
2022/10/16 11:00:02;;;;;;;5.95;5.25;;;;;;;32.61;57.80;100674.19;5060873;28;70217;-33
2022/10/16 11:02:48;;;;;;;5.82;4.82;;;;;;;32.63;59.18;100710.91;5058025;27;66202;-34
2022/10/16 11:05:31;;;;;;;5.78;5.35;;;;;;;32.30;61.33;100711.44;5051647;28;69268;-32
2022/10/16 11:08:05;;;;;;;16.55;6.63;;;;;;;32.15;61.13;100705.63;5054094;28;65714;-33
2022/10/16 11:10:47;;;;;;;8.88;7.55;;;;;;;32.05;61.14;100730.63;5050319;28;69946;-33
2022/10/16 11:13:23;;;;;;;10.40;7.53;;;;;;;31.97;61.91;100731.78;5059970;28;65772;-34
2022/10/16 11:15:59;;;;;;;10.55;7.47;;;;;;;31.92;61.84;100739.78;5053982;28;69953;-32
2022/10/16 11:18:47;;;;;;;13.90;7.32;;;;;;;31.84;62.80;100740.06;5055608;28;65186;-32
2022/10/16 11:21:21;;;;;;;8.05;7.13;;;;;;;31.79;63.69;100737.25;5060336;28;70027;-32
2022/10/16 11:24:19;;;;;;;8.27;7.60;;;;;;;31.34;64.04;100681.50;5061615;28;66191;-33
2022/10/16 11:26:53;;;;;;;8.30;7.05;;;;;;;31.75;64.25;100746.88;5050878;28;70215;-32
2022/10/16 11:29:29;;;;;;;10.55;7.22;;;;;;;31.30;64.40;100682.19;5060129;28;66894;-34
2022/10/16 11:32:12;;;;;;;9.82;6.97;;;;;;;31.64;65.52;100755.78;5061363;28;69269;-33
2022/10/16 11:34:48;;;;;;;7.38;6.72;;;;;;;31.54;63.72;100757.19;5058677;28;66517;-34
2022/10/16 11:37:27;;;;;;;12.77;7.45;;;;;;;31.50;62.91;100755.13;5056096;28;70214;-33
2022/10/16 11:40:14;;;;;;;8.40;6.15;;;;;;;31.39;62.88;100786.53;5057488;28;65341;-34
2022/10/16 11:43:17;;;;;;;11.73;6.38;;;;;;;31.19;62.03;100750.69;5071192;27;69631;-33
2022/10/16 11:45:53;;;;;;;6.30;5.90;;;;;;;31.23;61.51;100793.38;5052933;28;66330;-32
2022/10/16 11:48:40;;;;;;;6.25;5.72;;;;;;;30.69;60.51;100722.59;5056595;28;70690;-33
2022/10/16 11:51:22;;;;;;;6.60;6.10;;;;;;;31.07;60.60;100789.38;5059318;28;66327;-32
2022/10/16 11:54:11;;;;;;;6.90;6.22;;;;;;;30.95;59.99;100801.97;5058071;28;70116;-32
2022/10/16 11:56:44;;;;;;;6.63;5.35;;;;;;;30.96;59.26;100789.28;5057924;28;65728;-35
2022/10/16 11:59:25;;;;;;;7.53;6.75;;;;;;;30.96;59.58;100810.94;5058720;28;70090;-34